Terminal Aerodrome Forecast
Issued by NWS

Home | Current Version | Previous Version | Text Only | Print | Product List | Glossary On
Versions: 1 2 3 4 5 6 7 8 9 10 11 12 13 14 15 16
000
FTUS44 KLIX 010800 AAA
TAFMSY
TAF AMD
KMSY 010859Z 0109/0206 11009KT 3SM BR OVC003
      TEMPO 0109/0113 1SM BR BKN001
     FM011500 10011KT P6SM OVC015
      TEMPO 0120/0124 4SM -RA BR OVC008
     FM020300 10008KT P6SM OVC008=

USA.gov is the U.S. government's official web portal to all federal, state and local government web resources and services.